Time;durP1;ratioP1;P1;durP2;ratioP2;P2;SDS_P1;SDS_P2;PMS_P1;PMS_P2;Temp;Humidity;BMP_temperature;BMP_pressure;BME280_temperature;BME280_humidity;BME280_pressure;Samples;Min_cycle;Max_cycle;Signal;HPM_P1;HPM_P2
2023/01/31 00:01:32;;;;;;;;;34.50;26.25;;;;;3.73;100.00;102673.13;5077139;28;45451;-83
2023/01/31 00:04:03;;;;;;;;;32.50;26.75;;;;;3.67;100.00;102666.09;5077256;28;45405;-83
2023/01/31 00:06:30;;;;;;;;;43.75;30.75;;;;;3.66;100.00;102671.22;5076638;28;45277;-84
2023/01/31 00:08:57;;;;;;;;;33.00;29.25;;;;;3.64;100.00;102666.00;5076945;28;46370;-83
2023/01/31 00:11:24;;;;;;;;;43.25;31.00;;;;;3.62;100.00;102669.34;5076894;27;45379;-83
2023/01/31 00:13:51;;;;;;;;;41.25;31.50;;;;;3.62;100.00;102671.91;5027924;28;45454;-84
2023/01/31 00:16:17;;;;;;;;;37.50;30.25;;;;;3.58;100.00;102660.66;4956959;28;45328;-84
2023/01/31 00:18:42;;;;;;;;;37.50;31.50;;;;;3.52;100.00;102645.03;4956574;28;47291;-83
2023/01/31 00:21:16;;;;;;;;;38.75;28.75;;;;;3.55;100.00;102654.53;4972385;28;51110;-84
2023/01/31 00:23:43;;;;;;;;;36.50;31.25;;;;;3.56;100.00;102662.31;4972495;28;45250;-83
2023/01/31 00:26:17;;;;;;;;;30.50;22.50;;;;;3.56;100.00;102657.16;4972921;28;45540;-83
2023/01/31 00:28:45;;;;;;;;;41.00;35.00;;;;;3.54;100.00;102655.38;4974028;28;46720;-83
2023/01/31 00:31:11;;;;;;;;;40.25;34.50;;;;;3.53;100.00;102661.34;4972736;28;45406;-84
2023/01/31 00:33:38;;;;;;;;;47.75;36.50;;;;;3.48;100.00;102664.66;4972810;28;45423;-84
2023/01/31 00:36:10;;;;;;;;;40.00;28.00;;;;;3.43;100.00;102663.63;4973745;28;45429;-83
2023/01/31 00:38:36;;;;;;;;;48.75;36.00;;;;;3.40;100.00;102666.13;4972578;28;46185;-83
2023/01/31 00:41:02;;;;;;;;;26.25;19.00;;;;;3.38;100.00;102654.00;4971779;28;70356;-84
2023/01/31 00:43:29;;;;;;;;;47.00;32.50;;;;;3.39;100.00;102664.34;4972847;28;45352;-84
2023/01/31 00:45:54;;;;;;;;;47.75;30.25;;;;;3.33;100.00;102659.03;4973954;28;45451;-84
2023/01/31 00:48:20;;;;;;;;;39.50;34.00;;;;;3.35;100.00;102666.81;4973883;28;45446;-84
2023/01/31 00:50:45;;;;;;;;;42.50;33.00;;;;;3.28;100.00;102665.72;4972056;28;45360;-83
2023/01/31 00:53:11;;;;;;;;;41.75;33.50;;;;;3.28;100.00;102658.00;4971876;28;61232;-84
2023/01/31 00:55:36;;;;;;;;;49.75;36.50;;;;;3.31;100.00;102647.81;4971647;28;64000;-84
2023/01/31 00:58:01;;;;;;;;;36.00;31.50;;;;;3.28;100.00;102650.28;4971814;28;68196;-83
2023/01/31 01:00:27;;;;;;;;;45.00;34.25;;;;;3.26;100.00;102647.66;4973606;28;45274;-83
2023/01/31 01:02:52;;;;;;;;;42.00;30.25;;;;;3.22;100.00;102645.81;4972882;28;60794;-83
2023/01/31 01:05:18;;;;;;;;;45.50;35.75;;;;;3.22;100.00;102652.66;4971462;28;62615;-83
2023/01/31 01:07:44;;;;;;;;;56.25;40.00;;;;;3.17;100.00;102639.63;4955135;28;70884;-83
2023/01/31 01:10:10;;;;;;;;;49.25;36.25;;;;;3.20;100.00;102631.16;4971544;28;68750;-84
2023/01/31 01:12:35;;;;;;;;;50.75;37.50;;;;;3.22;100.00;102626.94;4972315;28;45353;-84
2023/01/31 01:15:00;;;;;;;;;54.50;46.00;;;;;3.21;100.00;102625.16;4971186;28;62917;-84
2023/01/31 01:17:26;;;;;;;;;45.75;39.25;;;;;3.19;100.00;102630.25;4972762;28;65544;-83
2023/01/31 01:19:51;;;;;;;;;43.50;34.25;;;;;3.18;100.00;102633.69;4971765;28;45486;-84
2023/01/31 01:22:16;;;;;;;;;44.50;37.75;;;;;3.21;100.00;102650.91;4972555;28;64964;-83
2023/01/31 01:24:42;;;;;;;;;47.50;37.50;;;;;3.27;100.00;102648.56;4973279;28;45368;-84
2023/01/31 01:27:08;;;;;;;;;45.25;38.75;;;;;3.24;100.00;102654.44;4971951;28;47337;-83
2023/01/31 01:29:34;;;;;;;;;38.00;30.50;;;;;3.25;100.00;102645.03;4972029;28;45456;-83
2023/01/31 01:31:59;;;;;;;;;49.00;39.00;;;;;3.18;100.00;102632.81;4971417;28;56256;-83
2023/01/31 01:34:25;;;;;;;;;36.75;33.50;;;;;3.24;100.00;102635.56;4955266;28;45346;-84
2023/01/31 01:36:50;;;;;;;;;37.00;29.75;;;;;3.23;100.00;102633.81;4974469;28;70646;-84
2023/01/31 01:39:16;;;;;;;;;46.50;33.50;;;;;3.22;100.00;102642.38;4974102;28;69703;-84
2023/01/31 01:41:42;;;;;;;;;25.25;19.75;;;;;3.18;100.00;102643.09;4975305;28;45321;-84
2023/01/31 01:44:45;;;;;;;;;40.25;30.50;;;;;3.19;100.00;102648.28;4974987;28;45305;-84
2023/01/31 01:47:33;;;;;;;;;39.75;32.00;;;;;3.17;100.00;102642.22;4976089;28;45566;-84
2023/01/31 01:50:07;;;;;;;;;44.00;33.00;;;;;3.18;100.00;102643.09;4958251;28;46054;-84
2023/01/31 01:52:37;;;;;;;;;42.25;32.25;;;;;3.11;100.00;102631.72;4976256;28;45342;-84
2023/01/31 01:55:32;;;;;;;;;39.50;25.00;;;;;3.10;100.00;102636.00;4974522;28;45461;-84
2023/01/31 01:58:38;;;;;;;;;36.25;30.25;;;;;3.07;100.00;102638.47;4975324;28;46561;-83
2023/01/31 02:01:05;;;;;;;;;39.75;30.00;;;;;2.99;100.00;102631.31;4974465;28;45844;-83
2023/01/31 02:03:31;;;;;;;;;39.75;33.25;;;;;2.99;100.00;102631.31;4958124;28;45396;-84
2023/01/31 02:05:59;;;;;;;;;31.75;28.00;;;;;2.99;100.00;102627.06;4973778;28;69490;-84
2023/01/31 02:08:30;;;;;;;;;45.00;31.50;;;;;3.04;100.00;102638.34;4974694;28;46843;-84
2023/01/31 02:11:00;;;;;;;;;40.00;31.25;;;;;3.06;100.00;102633.28;4974625;28;45991;-85
2023/01/31 02:13:26;;;;;;;;;49.75;36.25;;;;;3.04;100.00;102620.34;4974930;28;45514;-84
2023/01/31 02:15:51;;;;;;;;;38.75;27.75;;;;;3.04;100.00;102617.78;5060951;28;45411;-84
2023/01/31 02:18:18;;;;;;;;;39.00;31.75;;;;;3.04;100.00;102622.91;5043251;28;46936;-84
2023/01/31 02:21:15;;;;;;;;;40.50;29.00;;;;;3.03;100.00;102631.47;5060671;28;45917;-84
2023/01/31 02:23:59;;;;;;;;;31.75;22.00;;;;;2.99;100.00;102626.16;5078712;28;45312;-83
2023/01/31 02:27:04;;;;;;;;;32.75;27.00;;;;;2.96;100.00;102628.66;5078655;28;45596;-84
2023/01/31 02:29:47;;;;;;;;;33.75;26.75;;;;;2.94;100.00;102628.59;5078432;28;45285;-84
2023/01/31 02:32:45;;;;;;;;;37.25;28.00;;;;;2.91;100.00;102628.50;5060067;28;45929;-84
2023/01/31 02:35:14;;;;;;;;;31.50;26.50;;;;;2.89;100.00;102630.16;5046975;28;45386;-84
2023/01/31 02:38:16;;;;;;;;;39.50;29.50;;;;;2.86;100.00;102632.59;5058223;28;45422;-83
2023/01/31 02:41:01;;;;;;;;;25.75;19.25;;;;;2.85;100.00;102631.75;5058153;28;46318;-83
2023/01/31 02:44:57;;;;;;;;;38.50;31.00;;;;;2.86;100.00;102635.19;5058099;28;45373;-84
2023/01/31 02:46:34;;;;;;;;;33.00;29.50;;;;;2.79;100.00;102628.13;5057118;28;45347;-84
2023/01/31 02:49:38;;;;;;;;;44.50;34.00;;;;;2.82;100.00;102634.22;5048606;27;45555;-83
2023/01/31 02:52:30;;;;;;;;;51.50;40.75;;;;;2.78;100.00;102628.91;5098544;27;46221;-84
2023/01/31 02:57:48;;;;;;;;;50.00;35.25;;;;;2.75;100.00;102626.22;5083273;27;45423;-84
2023/01/31 03:00:14;;;;;;;;;52.75;40.00;;;;;2.74;100.00;102622.78;5080358;27;45328;-84
2023/01/31 03:02:40;;;;;;;;;50.75;40.25;;;;;2.76;100.00;102622.84;5079701;27;46391;-84
2023/01/31 03:05:05;;;;;;;;;53.75;29.25;;;;;2.69;100.00;102622.66;5080278;27;45336;-83
2023/01/31 03:07:36;;;;;;;;;43.50;28.50;;;;;2.66;100.00;102634.53;5098648;27;45551;-84
2023/01/31 03:10:04;;;;;;;;;37.50;27.75;;;;;2.70;100.00;102631.25;5080403;27;45371;-83
2023/01/31 03:12:41;;;;;;;;;44.00;33.00;;;;;2.69;100.00;102634.63;5098383;27;46348;-84
2023/01/31 03:18:23;;;;;;;;;35.00;27.75;;;;;2.67;100.00;102633.69;5055255;28;45438;-83
2023/01/31 03:20:53;;;;;;;;;39.25;26.75;;;;;2.64;100.00;102636.19;4970279;28;45297;-83
2023/01/31 03:23:20;;;;;;;;;35.00;27.75;;;;;2.64;100.00;102637.03;5054813;28;45436;-84
2023/01/31 03:25:47;;;;;;;;;29.00;21.50;;;;;2.61;100.00;102638.63;4969835;28;46154;-83
2023/01/31 03:28:16;;;;;;;;;36.25;30.00;;;;;2.62;100.00;102638.69;4970297;28;45454;-83
2023/01/31 03:30:50;;;;;;;;;27.50;20.50;;;;;2.55;100.00;102629.00;5054421;28;45559;-84
2023/01/31 03:33:19;;;;;;;;;28.50;28.25;;;;;2.56;100.00;102637.59;4969989;28;45504;-83
2023/01/31 03:35:51;;;;;;;;;31.75;25.00;;;;;2.57;100.00;102642.78;5036816;28;45432;-84
2023/01/31 03:38:20;;;;;;;;;33.25;25.00;;;;;2.54;100.00;102627.25;5018114;28;45393;-83
2023/01/31 03:40:51;;;;;;;;;32.00;26.00;;;;;2.55;100.00;102630.72;4966596;28;45506;-84
2023/01/31 03:43:22;;;;;;;;;32.75;25.00;;;;;2.59;100.00;102646.28;4966213;28;48560;-84
2023/01/31 03:45:57;;;;;;;;;30.25;24.75;;;;;2.49;100.00;102621.09;4966062;28;45379;-83
2023/01/31 03:48:27;;;;;;;;;32.75;24.75;;;;;2.55;100.00;102635.88;4966677;28;45485;-84
2023/01/31 03:50:57;;;;;;;;;25.75;22.50;;;;;2.59;100.00;102636.00;4969882;28;45550;-84
2023/01/31 03:53:31;;;;;;;;;26.75;19.75;;;;;2.58;100.00;102639.41;5054563;28;46613;-84
2023/01/31 03:56:08;;;;;;;;;17.75;15.50;;;;;2.56;100.00;102632.47;4989630;28;45453;-84
2023/01/31 03:58:38;;;;;;;;;32.00;21.25;;;;;2.57;100.00;102631.66;4991727;28;45465;-84
2023/01/31 04:01:07;;;;;;;;;24.00;19.00;;;;;2.57;100.00;102635.09;4992930;28;45468;-84
2023/01/31 04:03:45;;;;;;;;;33.00;26.50;;;;;2.54;100.00;102639.25;4992591;28;45437;-83
2023/01/31 04:06:10;;;;;;;;;22.50;19.50;;;;;2.45;100.00;102630.41;4992636;28;45903;-84
2023/01/31 04:08:36;;;;;;;;;24.00;19.00;;;;;2.48;100.00;102639.91;4992956;28;45454;-84
2023/01/31 04:11:04;;;;;;;;;27.50;19.00;;;;;2.44;100.00;102633.78;4992354;28;59276;-84
2023/01/31 04:13:30;;;;;;;;;20.25;15.25;;;;;2.43;100.00;102634.59;4992293;28;46564;-83
2023/01/31 04:15:55;;;;;;;;;28.00;18.50;;;;;2.41;100.00;102633.66;4991889;28;66929;-84
2023/01/31 04:18:20;;;;;;;;;25.00;18.75;;;;;2.41;100.00;102630.22;4994119;28;45358;-84
2023/01/31 04:20:46;;;;;;;;;23.00;18.75;;;;;2.38;100.00;102627.53;4991727;28;66133;-83
2023/01/31 04:23:11;;;;;;;;;32.50;21.75;;;;;2.43;100.00;102636.28;4991739;28;71998;-84
2023/01/31 04:25:36;;;;;;;;;22.50;21.25;;;;;2.43;100.00;102634.59;4992863;28;68884;-84
2023/01/31 04:28:02;;;;;;;;;30.50;22.50;;;;;2.40;100.00;102636.19;5008049;28;67276;-84
2023/01/31 04:30:27;;;;;;;;;36.25;22.75;;;;;2.43;100.00;102644.00;4992737;28;45398;-84
2023/01/31 04:32:52;;;;;;;;;21.75;21.00;;;;;2.42;100.00;102644.84;4992640;28;70593;-84
2023/01/31 04:35:18;;;;;;;;;29.25;23.00;;;;;2.38;100.00;102630.09;4991465;28;65690;-84
2023/01/31 04:37:43;;;;;;;;;28.00;22.00;;;;;2.40;100.00;102631.94;4992788;28;45297;-84
2023/01/31 04:40:10;;;;;;;;;30.50;20.75;;;;;2.38;100.00;102633.56;4993739;28;45289;-83
2023/01/31 04:42:35;;;;;;;;;27.75;17.50;;;;;2.39;100.00;102637.88;4993273;28;46204;-83
2023/01/31 04:45:00;;;;;;;;;22.50;19.50;;;;;2.45;100.00;102639.78;4993046;28;55530;-84
2023/01/31 04:47:26;;;;;;;;;35.50;22.00;;;;;2.45;100.00;102632.06;4992387;28;45342;-83
2023/01/31 04:49:51;;;;;;;;;24.25;21.00;;;;;2.43;100.00;102634.59;4981574;28;63973;-84
2023/01/31 04:52:16;;;;;;;;;19.00;18.25;;;;;2.45;100.00;102638.13;4972891;28;71747;-84
2023/01/31 04:54:42;;;;;;;;;23.00;20.50;;;;;2.49;100.00;102637.41;4973142;28;67538;-84
2023/01/31 04:57:07;;;;;;;;;25.50;19.00;;;;;2.49;100.00;102629.69;4972035;28;53634;-84
2023/01/31 04:59:32;;;;;;;;;20.50;13.00;;;;;2.51;100.00;102633.19;4973959;28;45297;-84
2023/01/31 05:01:58;;;;;;;;;20.00;18.00;;;;;2.51;100.00;102624.59;4973104;28;65891;-84
2023/01/31 05:04:25;;;;;;;;;23.00;18.00;;;;;2.51;100.00;102622.91;4971693;28;66337;-84
2023/01/31 05:06:50;;;;;;;;;18.00;16.50;;;;;2.47;100.00;102607.28;4973850;28;45441;-84
2023/01/31 05:09:16;;;;;;;;;18.75;13.00;;;;;2.47;100.00;102615.00;4972233;28;45403;-84
2023/01/31 05:11:42;;;;;;;;;16.00;13.50;;;;;2.43;100.00;102601.16;4971928;28;46364;-83
2023/01/31 05:14:07;;;;;;;;;16.25;10.50;;;;;2.57;100.00;102613.66;4972206;28;45466;-84
2023/01/31 05:16:33;;;;;;;;;15.50;12.75;;;;;2.66;100.00;102616.53;4972487;28;45302;-83
2023/01/31 05:18:58;;;;;;;;;17.00;9.50;;;;;2.67;100.00;102614.00;4972523;28;45525;-83
2023/01/31 05:21:23;;;;;;;;;19.00;12.75;;;;;2.79;100.00;102610.09;4972332;28;70880;-83
2023/01/31 05:23:49;;;;;;;;;12.50;10.00;;;;;2.84;100.00;102612.00;4972504;28;45332;-84
2023/01/31 05:26:14;;;;;;;;;8.00;8.00;;;;;2.81;100.00;102609.31;4972004;28;45388;-83
2023/01/31 05:28:40;;;;;;;;;13.50;9.25;;;;;2.80;100.00;102607.56;4972361;28;45298;-84
2023/01/31 05:31:07;;;;;;;;;17.75;12.50;;;;;2.87;100.00;102606.94;4955887;28;47376;-84
2023/01/31 05:33:32;;;;;;;;;12.50;9.00;;;;;3.00;100.00;102617.66;4973289;28;45406;-84
2023/01/31 05:35:59;;;;;;;;;13.50;12.00;;;;;3.08;100.00;102629.03;4968808;28;45588;-83
2023/01/31 05:38:24;;;;;;;;;18.25;12.25;;;;;3.13;100.00;102618.91;4952521;28;45456;-84
2023/01/31 05:40:50;;;;;;;;;11.25;11.00;;;;;3.26;100.00;102632.22;4952266;28;47025;-84
2023/01/31 05:43:15;;;;;;;;;20.00;13.50;;;;;3.33;100.00;102630.72;4953568;28;45295;-83
2023/01/31 05:45:40;;;;;;;;;15.50;13.75;;;;;3.44;100.00;102628.47;4951903;28;58218;-83
2023/01/31 05:48:05;;;;;;;;;20.00;14.50;;;;;3.54;100.00;102635.63;4951981;28;61804;-83
2023/01/31 05:50:31;;;;;;;;;20.00;12.50;;;;;3.58;100.00;102629.75;4969234;28;67574;-83
2023/01/31 05:53:04;;;;;;;;;17.25;14.00;;;;;3.70;100.00;102624.13;4972972;28;45606;-83
2023/01/31 05:55:30;;;;;;;;;14.50;12.75;;;;;3.79;100.00;102626.06;4971633;28;45345;-84
2023/01/31 05:57:55;;;;;;;;;12.50;8.00;;;;;3.82;100.00;102615.84;4971892;28;45269;-83
2023/01/31 06:00:21;;;;;;;;;13.25;13.00;;;;;3.89;100.00;102622.94;4972914;28;46287;-84
2023/01/31 06:02:47;;;;;;;;;12.25;10.00;;;;;3.95;100.00;102612.81;4971710;28;45375;-83
2023/01/31 06:05:13;;;;;;;;;13.75;11.25;;;;;3.99;100.00;102617.25;4970698;28;64844;-83
2023/01/31 06:07:38;;;;;;;;;15.00;11.00;;;;;3.96;100.00;102604.25;4972565;28;50936;-83
2023/01/31 06:10:04;;;;;;;;;20.25;10.50;;;;;4.02;100.00;102617.31;4972296;28;46376;-84
2023/01/31 06:12:30;;;;;;;;;13.75;11.75;;;;;4.00;100.00;102610.38;4972774;28;45860;-84
2023/01/31 06:14:56;;;;;;;;;16.00;12.25;;;;;4.01;100.00;102614.69;4971590;28;45356;-84
2023/01/31 06:17:22;;;;;;;;;18.75;8.75;;;;;4.06;100.00;102624.28;4971670;28;45980;-84
2023/01/31 06:19:48;;;;;;;;;11.00;8.50;;;;;4.12;100.00;102620.13;4971311;28;46157;-83
2023/01/31 06:22:13;;;;;;;;;10.00;6.75;;;;;4.15;100.00;102620.22;4974254;28;45451;-83
2023/01/31 06:24:39;;;;;;;;;13.75;9.00;;;;;4.18;100.00;102628.03;4974614;28;64271;-84
2023/01/31 06:27:04;;;;;;;;;15.00;9.00;;;;;4.19;100.00;102633.22;4957499;28;66350;-83
2023/01/31 06:29:29;;;;;;;;;10.75;10.00;;;;;4.19;100.00;102637.53;4973629;28;67377;-84
2023/01/31 06:31:55;;;;;;;;;16.00;8.75;;;;;4.24;100.00;102641.13;4974520;28;62285;-84
2023/01/31 06:34:20;;;;;;;;;16.25;11.00;;;;;4.22;100.00;102637.63;4973722;28;63134;-85
2023/01/31 06:36:45;;;;;;;;;11.75;7.75;;;;;4.33;100.00;102643.94;4973827;28;61341;-84
2023/01/31 06:39:14;;;;;;;;;19.25;10.00;;;;;4.38;100.00;102651.78;4974542;28;69154;-84
2023/01/31 06:41:39;;;;;;;;;12.50;6.00;;;;;4.44;100.00;102652.84;4974335;28;45432;-84
2023/01/31 06:44:05;;;;;;;;;9.00;7.00;;;;;4.50;100.00;102661.59;4974388;28;45360;-83
2023/01/31 06:46:30;;;;;;;;;11.00;6.00;;;;;4.51;100.00;102655.56;4975614;28;45399;-84
2023/01/31 06:48:56;;;;;;;;;7.00;7.00;;;;;4.57;100.00;102655.72;4974086;28;45622;-83
2023/01/31 06:51:21;;;;;;;;;7.75;7.00;;;;;4.54;100.00;102648.78;4974429;28;45417;-83
2023/01/31 06:53:46;;;;;;;;;13.00;8.00;;;;;4.61;100.00;102655.00;4975213;28;45763;-83
2023/01/31 06:56:12;;;;;;;;;10.00;7.00;;;;;4.60;100.00;102642.94;4974609;28;59721;-83
2023/01/31 06:58:37;;;;;;;;;13.00;8.25;;;;;4.56;100.00;102644.56;4973392;28;65809;-83
2023/01/31 07:01:04;;;;;;;;;9.75;9.75;;;;;4.55;100.00;102634.19;4973441;28;63158;-83
2023/01/31 07:03:29;;;;;;;;;11.75;4.50;;;;;4.53;100.00;102639.34;4975481;28;45494;-83
2023/01/31 07:05:55;;;;;;;;;10.00;10.00;;;;;4.59;100.00;102652.38;4974648;28;55649;-83
2023/01/31 07:18:25;;;;;;;;;6.00;6.00;;;;;4.77;100.00;102648.53;4936801;28;46220;-82
2023/01/31 07:20:51;;;;;;;;;8.25;5.25;;;;;4.73;100.00;102626.94;5080371;27;47306;-84
2023/01/31 07:23:16;;;;;;;;;17.25;5.25;;;;;4.75;100.00;102627.84;5076097;28;45360;-82
2023/01/31 07:25:41;;;;;;;;;6.25;5.25;;;;;4.82;100.00;102647.81;5065740;28;66370;-82
2023/01/31 07:28:07;;;;;;;;;7.75;4.50;;;;;4.80;100.00;102630.53;5077783;28;45475;-82
2023/01/31 07:30:32;;;;;;;;;10.00;7.00;;;;;4.89;100.00;102637.66;5059009;28;46594;-81
2023/01/31 07:32:59;;;;;;;;;12.50;9.00;;;;;4.96;100.00;102653.34;5059107;28;47337;-82
2023/01/31 07:35:24;;;;;;;;;7.25;7.00;;;;;4.96;100.00;102650.75;5042327;28;45226;-81
2023/01/31 07:37:52;;;;;;;;;9.50;5.00;;;;;4.98;100.00;102650.78;5057626;28;64183;-83
2023/01/31 07:40:18;;;;;;;;;8.25;7.00;;;;;5.00;100.00;102644.81;5060363;28;64508;-84
2023/01/31 07:42:43;;;;;;;;;8.75;7.00;;;;;5.02;100.00;102643.16;5063787;28;45470;-82
2023/01/31 07:45:11;;;;;;;;;7.75;6.00;;;;;5.07;100.00;102655.28;5076481;28;45478;-83
2023/01/31 07:47:36;;;;;;;;;7.00;4.75;;;;;5.06;100.00;102653.56;5076887;27;45576;-82
2023/01/31 07:50:02;;;;;;;;;7.00;4.75;;;;;5.10;100.00;102650.22;5057839;28;74020;-84
2023/01/31 07:52:27;;;;;;;;;10.00;8.00;;;;;5.10;100.00;102647.63;5070023;28;45467;-81
2023/01/31 07:54:53;;;;;;;;;5.50;5.00;;;;;5.14;100.00;102660.63;5051385;28;45755;-83
2023/01/31 07:57:18;;;;;;;;;9.00;5.00;;;;;5.22;100.00;102668.59;5058014;28;65633;-83
2023/01/31 07:59:44;;;;;;;;;7.25;4.00;;;;;5.23;100.00;102665.16;5058916;28;47173;-82
2023/01/31 08:04:55;;;;;;;;;10.25;7.25;;;;;5.28;100.00;102667.88;5061308;28;45408;-82
2023/01/31 08:07:20;;;;;;;;;6.00;5.00;;;;;5.30;100.00;102658.44;5058287;28;63693;-83
2023/01/31 08:09:48;;;;;;;;;7.75;5.50;;;;;5.33;100.00;102656.81;5058053;28;66858;-81
2023/01/31 08:12:13;;;;;;;;;10.50;7.25;;;;;5.31;100.00;102652.41;5059364;28;45344;-87
2023/01/31 08:14:39;;;;;;;;;7.00;6.50;;;;;5.34;100.00;102657.66;5077135;28;45379;-85
2023/01/31 08:17:07;;;;;;;;;8.00;4.50;;;;;5.32;100.00;102656.75;5034223;28;45392;-85
2023/01/31 08:19:33;;;;;;;;;7.50;5.00;;;;;5.39;100.00;102662.09;4972666;28;46659;-84
2023/01/31 08:21:58;;;;;;;;;8.00;6.50;;;;;5.51;100.00;102665.81;4972977;28;45344;-84
2023/01/31 08:24:24;;;;;;;;;9.00;6.00;;;;;5.50;100.00;102657.19;4973296;28;45336;-85
2023/01/31 08:26:49;;;;;;;;;10.25;6.50;;;;;5.53;100.00;102648.63;4972905;28;45499;-83
2023/01/31 08:29:15;;;;;;;;;5.00;4.75;;;;;5.64;100.00;102657.50;4972733;28;46306;-83
2023/01/31 08:31:41;;;;;;;;;5.00;4.00;;;;;5.75;100.00;102663.75;4974658;28;45433;-82
2023/01/31 08:34:06;;;;;;;;;7.50;4.75;;;;;5.76;100.00;102659.50;4973709;27;45582;-82
2023/01/31 08:36:32;;;;;;;;;7.75;6.00;;;;;5.74;100.00;102664.63;4970718;28;45552;-82
2023/01/31 08:38:58;;;;;;;;;6.50;5.00;;;;;5.80;100.00;102675.06;4970440;28;54135;-81
2023/01/31 08:41:25;;;;;;;;;7.25;4.75;;;;;5.87;100.00;102673.50;4969067;28;45547;-82
2023/01/31 08:43:51;;;;;;;;;4.00;4.00;;;;;5.90;100.00;102670.09;4970861;28;45642;-81
2023/01/31 08:46:17;;;;;;;;;9.75;3.50;;;;;5.90;100.00;102678.72;4970830;28;45644;-81
2023/01/31 08:48:42;;;;;;;;;11.00;7.00;;;;;5.96;100.00;102678.91;4970693;28;46240;-81
2023/01/31 08:51:10;;;;;;;;;5.75;4.75;;;;;6.05;100.00;102688.56;4971268;28;45411;-82
2023/01/31 08:53:43;;;;;;;;;6.75;4.00;;;;;6.11;100.00;102675.78;4971341;28;45867;-81
2023/01/31 08:56:09;;;;;;;;;10.25;5.00;;;;;6.22;100.00;102670.78;4970233;28;45423;-82
2023/01/31 08:58:37;;;;;;;;;7.00;5.00;;;;;6.29;100.00;102680.44;4967973;28;46652;-82
2023/01/31 09:01:04;;;;;;;;;6.00;5.00;;;;;6.29;100.00;102667.50;4980677;28;46235;-81
2023/01/31 09:03:30;;;;;;;;;7.00;4.25;;;;;6.36;100.00;102681.44;4960795;28;45512;-81
2023/01/31 09:06:03;;;;;;;;;7.50;5.50;;;;;6.41;100.00;102677.22;4988015;28;62804;-81
2023/01/31 09:08:29;;;;;;;;;5.75;5.00;;;;;6.48;100.00;102681.69;4987128;28;46320;-82
2023/01/31 09:10:55;;;;;;;;;6.75;4.00;;;;;6.55;100.00;102680.06;5058521;28;45415;-82
2023/01/31 09:13:21;;;;;;;;;13.25;5.00;;;;;6.57;100.00;102675.78;4976642;28;45678;-82
2023/01/31 09:15:56;;;;;;;;;4.00;4.00;;;;;6.67;100.00;102676.84;4978653;28;45590;-82
2023/01/31 09:18:21;;;;;;;;;7.50;2.00;;;;;6.73;100.00;102684.72;4974415;28;45578;-82
2023/01/31 09:20:47;;;;;;;;;6.25;3.50;;;;;6.74;100.00;102691.63;4974212;28;67710;-81
2023/01/31 09:23:12;;;;;;;;;7.25;4.50;;;;;6.75;100.00;102691.66;4973645;28;59767;-82
2023/01/31 09:25:37;;;;;;;;;8.00;5.00;;;;;6.70;100.00;102676.88;4983942;28;45372;-82
2023/01/31 09:28:03;;;;;;;;;3.50;2.00;;;;;6.71;100.00;102691.59;4986015;28;46476;-81
2023/01/31 09:30:28;;;;;;;;;1.75;1.75;;;;;6.70;100.00;102695.88;4977317;28;45404;-82
2023/01/31 09:32:53;;;;;;;;;8.00;4.00;;;;;6.77;100.00;102702.91;4961335;28;59776;-80
2023/01/31 09:35:20;;;;;;;;;4.00;2.00;;;;;6.81;100.00;102705.56;4974919;28;45657;-82
2023/01/31 09:37:45;;;;;;;;;6.00;4.75;;;;;6.78;100.00;102688.28;4990719;28;45570;-81
2023/01/31 09:40:22;;;;;;;;;4.75;2.00;;;;;6.81;100.00;102701.25;4976553;28;45568;-81
2023/01/31 09:42:48;;;;;;;;;4.00;2.50;;;;;6.78;100.00;102691.72;4970996;28;45555;-81
2023/01/31 09:45:19;;;;;;;;;4.00;3.50;;;;;6.78;100.00;102691.72;4971754;28;45754;-81
2023/01/31 09:47:49;;;;;;;;;3.00;3.00;;;;;6.87;100.00;102703.97;4964190;28;46523;-81
2023/01/31 09:50:39;;;;;;;;;4.25;4.00;;;;;6.90;100.00;102711.78;4973064;28;45579;-82
2023/01/31 09:53:04;;;;;;;;;5.75;3.50;;;;;6.95;100.00;102715.31;5009580;28;45498;-81
2023/01/31 09:55:54;;;;;;;;;5.50;3.00;;;;;7.01;100.00;102719.75;4981763;28;65665;-81
2023/01/31 09:58:34;;;;;;;;;3.00;3.00;;;;;7.04;100.00;102712.03;4986320;28;46382;-81
2023/01/31 10:01:13;;;;;;;;;4.75;4.75;;;;;7.10;100.00;102719.03;5002503;28;45500;-81
2023/01/31 10:03:50;;;;;;;;;4.00;2.00;;;;;7.10;100.00;102709.53;4990324;28;45692;-88
2023/01/31 10:06:20;;;;;;;;;7.00;4.25;;;;;7.13;100.00;102706.13;5048986;28;45384;-81
2023/01/31 10:08:52;;;;;;;;;7.00;4.00;;;;;7.22;100.00;102702.81;4968873;28;45863;-82
2023/01/31 10:11:26;;;;;;;;;8.00;4.75;;;;;7.25;100.00;102708.91;4989999;28;45881;-82
2023/01/31 10:13:56;;;;;;;;;8.00;4.00;;;;;7.38;100.00;102716.91;4981277;28;45373;-82
2023/01/31 10:16:44;;;;;;;;;5.00;4.00;;;;;7.50;100.00;102720.56;4969988;28;45511;-81
2023/01/31 10:19:20;;;;;;;;;6.50;4.00;;;;;7.56;100.00;102723.25;5037081;27;47211;-82
2023/01/31 10:21:55;;;;;;;;;8.00;5.00;;;;;7.59;100.00;102706.84;4975412;27;45949;-82
2023/01/31 10:24:28;;;;;;;;;7.00;5.00;;;;;7.67;100.00;102697.50;4967281;28;45567;-82
2023/01/31 10:27:00;;;;;;;;;6.50;3.50;;;;;7.77;100.00;102697.63;4975436;28;45515;-82
2023/01/31 10:29:37;;;;;;;;;7.75;6.25;;;;;7.91;100.00;102699.56;4979445;28;46347;-81
2023/01/31 10:32:07;;;;;;;;;8.25;5.00;;;;;8.11;100.00;102701.53;5039617;28;45781;-81
2023/01/31 10:34:38;;;;;;;;;10.00;4.00;;;;;8.21;100.00;102697.31;5003340;28;45484;-82
2023/01/31 10:37:18;;;;;;;;;7.75;4.25;;;;;8.37;100.00;102701.84;5005573;28;45556;-81
2023/01/31 10:39:54;;;;;;;;;8.25;6.25;;;;;8.47;100.00;102698.53;4997672;28;47085;-83
2023/01/31 10:42:31;;;;;;;;;6.75;6.75;;;;;8.55;100.00;102696.03;4953438;28;45454;-83
2023/01/31 10:45:16;;;;;;;;;14.00;6.00;;;;;8.64;100.00;102701.31;4981465;28;45752;-82
2023/01/31 10:47:55;;;;;;;;;5.50;5.00;;;;;8.59;100.00;102695.19;4986424;28;45487;-83
2023/01/31 10:50:20;;;;;;;;;9.00;5.00;;;;;8.63;100.00;102699.56;4982136;28;45763;-79
2023/01/31 10:52:56;;;;;;;;;9.67;5.00;;;;;8.60;100.00;102704.75;4993471;28;45491;-79
2023/01/31 10:55:47;;;;;;;;;9.25;6.00;;;;;8.64;100.00;102693.53;4997980;28;45554;-79
2023/01/31 10:58:15;;;;;;;;;7.75;4.75;;;;;8.72;100.00;102691.88;5006415;28;45391;-78
2023/01/31 11:00:41;;;;;;;;;5.25;4.00;;;;;8.68;100.00;102684.91;4978542;28;47097;-79
2023/01/31 11:03:08;;;;;;;;;4.00;4.00;;;;;8.71;100.00;102673.66;4976508;28;67467;-77
2023/01/31 11:05:36;;;;;;;;;10.25;4.75;;;;;8.72;100.00;102668.50;4981058;28;45562;-78
2023/01/31 11:08:21;;;;;;;;;4.50;3.00;;;;;8.80;100.00;102680.69;4978944;28;63171;-78
2023/01/31 11:10:51;;;;;;;;;3.50;2.50;;;;;8.84;100.00;102674.66;4984056;28;46592;-77
2023/01/31 11:13:17;;;;;;;;;8.75;4.25;;;;;8.85;100.00;102658.25;4978438;28;45515;-77
2023/01/31 11:15:43;;;;;;;;;9.50;4.00;;;;;8.91;100.00;102664.38;4975451;27;45658;-79
2023/01/31 11:18:14;;;;;;;;;8.25;2.50;;;;;8.97;100.00;102663.56;5054737;27;45370;-79
2023/01/31 11:20:46;;;;;;;;;8.75;2.00;;;;;9.03;100.00;102665.31;5076719;27;46422;-79
2023/01/31 11:23:14;;;;;;;;;8.00;4.00;;;;;9.09;100.00;102660.16;5076923;27;45554;-79
2023/01/31 11:25:46;;;;;;;;;5.00;2.00;;;;;9.22;100.00;102662.00;5066190;27;45658;-79
2023/01/31 11:28:34;;;;;;;;;2.00;1.00;;;;;9.32;100.00;102646.47;5084079;27;45413;-80
2023/01/31 11:31:00;;;;;;;;;6.00;4.25;;;;;9.30;100.00;102649.06;5074910;27;45565;-80
2023/01/31 11:33:55;;;;;;;;;5.75;4.00;;;;;9.33;100.00;102645.63;5067773;27;45857;-79
2023/01/31 11:36:22;;;;;;;;;4.75;3.50;;;;;9.40;100.00;102637.03;5088293;27;45422;-80
2023/01/31 11:38:51;;;;;;;;;3.50;2.75;;;;;9.46;100.00;102635.31;5068078;27;45504;-80
2023/01/31 11:41:35;;;;;;;;;5.75;5.00;;;;;9.55;100.00;102626.69;5074056;27;46394;-79
2023/01/31 11:44:11;;;;;;;;;9.25;5.25;;;;;9.71;100.00;102631.97;5093329;27;45371;-81
2023/01/31 11:46:45;;;;;;;;;3.25;2.00;;;;;9.87;100.00;102620.78;5094196;27;45820;-79